createdAt,value
2022-08-26T04:04:00.362Z,14.13
2022-08-26T04:06:30.874Z,11.18
2022-08-26T04:09:02.755Z,18.33
2022-08-26T04:11:34.539Z,14.55
2022-08-26T04:14:08.591Z,9.80
2022-08-26T04:16:36.424Z,13.77
2022-08-26T04:19:05.494Z,13.48
2022-08-26T04:21:33.456Z,14.23
2022-08-26T04:24:03.433Z,13.88
2022-08-26T04:26:36.837Z,14.05
2022-08-26T04:29:09.782Z,13.45
2022-08-26T04:31:38.476Z,14.93
2022-08-26T04:34:11.154Z,14.93
2022-08-26T04:36:38.976Z,10.95
2022-08-26T04:39:06.665Z,12.02
2022-08-26T04:41:34.883Z,16.02
2022-08-26T04:44:04.686Z,12.18
2022-08-26T04:46:32.366Z,12.60
2022-08-26T04:49:00.468Z,13.65
2022-08-26T04:51:29.489Z,11.05
2022-08-26T04:53:58.278Z,13.38
2022-08-26T04:56:27.483Z,20.95
2022-08-26T04:58:56.458Z,20.58
2022-08-26T05:01:24.709Z,18.60
2022-08-26T05:03:52.993Z,14.57
2022-08-26T05:06:20.865Z,11.55
2022-08-26T05:08:51.465Z,12.38
2022-08-26T05:11:22.080Z,18.23
2022-08-26T05:13:49.787Z,12.18
2022-08-26T05:16:18.562Z,18.15
2022-08-26T05:18:47.265Z,17.73
2022-08-26T05:21:20.127Z,18.55
2022-08-26T05:23:48.949Z,16.30
2022-08-26T05:26:22.950Z,14.75
2022-08-26T05:28:51.195Z,12.38
2022-08-26T05:31:25.535Z,13.57
2022-08-26T05:33:53.633Z,22.35
2022-08-26T05:36:23.712Z,18.25
2022-08-26T05:38:55.050Z,15.85
2022-08-26T05:41:34.152Z,12.85
2022-08-26T05:44:05.820Z,15.07
2022-08-26T05:46:35.018Z,20.48
2022-08-26T05:49:04.246Z,17.75
2022-08-26T05:51:32.487Z,25.30
2022-08-26T05:54:02.532Z,19.88
2022-08-26T05:56:33.451Z,16.50
2022-08-26T05:59:02.570Z,17.33
2022-08-26T06:01:35.705Z,15.90
2022-08-26T06:04:04.820Z,18.52
2022-08-26T06:06:34.519Z,13.15
2022-08-26T06:09:05.092Z,15.15
2022-08-26T06:11:34.224Z,11.18
2022-08-26T06:14:05.282Z,16.15
2022-08-26T06:16:34.606Z,16.70
2022-08-26T06:19:10.593Z,16.63
2022-08-26T06:21:41.617Z,16.52
2022-08-26T06:24:29.532Z,13.05
2022-08-26T06:27:01.408Z,16.38
2022-08-26T06:29:33.019Z,17.55
2022-08-26T06:32:01.854Z,12.63
2022-08-26T06:34:30.634Z,14.88
2022-08-26T06:37:01.270Z,13.05
2022-08-26T06:39:31.299Z,15.60
2022-08-26T06:42:02.945Z,14.38
2022-08-26T06:44:31.054Z,14.75
2022-08-26T06:47:00.097Z,15.25
2022-08-26T06:49:28.489Z,15.55
2022-08-26T06:51:57.987Z,21.70
2022-08-26T06:54:27.446Z,17.60
2022-08-26T06:56:56.683Z,16.13
2022-08-26T06:59:27.430Z,15.32
2022-08-26T07:01:55.898Z,18.17
2022-08-26T07:04:24.911Z,16.58
2022-08-26T07:06:56.050Z,17.77
2022-08-26T07:09:26.600Z,17.27
2022-08-26T07:11:56.109Z,14.77
2022-08-26T07:14:24.863Z,19.88
2022-08-26T07:16:54.365Z,17.70
2022-08-26T07:19:30.838Z,20.15
2022-08-26T07:22:00.341Z,16.58
2022-08-26T07:24:28.543Z,20.70
2022-08-26T07:27:00.521Z,13.70
2022-08-26T07:29:28.673Z,21.23
2022-08-26T07:31:57.960Z,15.93
2022-08-26T07:34:26.220Z,19.25
2022-08-26T07:36:55.215Z,14.38
2022-08-26T07:39:23.292Z,19.60
2022-08-26T07:41:51.558Z,23.15
2022-08-26T07:44:19.582Z,17.98
2022-08-26T07:46:53.051Z,14.10
2022-08-26T07:49:23.515Z,19.58
2022-08-26T07:51:51.776Z,26.33
2022-08-26T07:54:20.453Z,16.50
2022-08-26T07:56:54.508Z,15.57
2022-08-26T07:59:24.332Z,17.85
2022-08-26T08:01:53.043Z,18.45
2022-08-26T08:04:26.422Z,24.42
2022-08-26T08:06:54.977Z,17.20
2022-08-26T08:09:23.159Z,19.15
2022-08-26T08:11:53.538Z,23.20
2022-08-26T08:14:22.216Z,17.58
2022-08-26T08:16:51.168Z,20.02
2022-08-26T08:19:24.341Z,24.70
2022-08-26T08:22:05.137Z,14.45
2022-08-26T08:24:44.799Z,18.13
2022-08-26T08:27:12.383Z,18.30
2022-08-26T08:29:41.282Z,19.90
2022-08-26T08:32:11.472Z,17.88
2022-08-26T08:37:16.953Z,17.17
2022-08-26T08:39:44.612Z,16.80
2022-08-26T08:42:35.081Z,27.88
2022-08-26T08:45:06.160Z,15.95
2022-08-26T08:47:37.893Z,18.38
2022-08-26T08:50:17.057Z,16.63
2022-08-26T08:52:50.516Z,19.55
2022-08-26T08:55:18.721Z,16.92
2022-08-26T08:58:02.109Z,16.35
2022-08-26T09:00:39.930Z,18.58
2022-08-26T09:03:20.082Z,16.30
2022-08-26T09:05:53.302Z,17.50
2022-08-26T09:08:27.418Z,16.55
2022-08-26T09:11:00.438Z,16.52
2022-08-26T09:13:29.038Z,15.27
2022-08-26T09:16:08.250Z,29.70
2022-08-26T09:18:54.586Z,19.05
2022-08-26T09:21:25.366Z,10.80
2022-08-26T09:23:55.565Z,20.67
2022-08-26T09:26:29.312Z,16.38
2022-08-26T09:29:00.892Z,18.83
2022-08-26T09:31:30.632Z,13.40
2022-08-26T09:34:17.481Z,17.83
2022-08-26T09:36:48.787Z,14.35
2022-08-26T09:39:29.067Z,24.17
2022-08-26T09:42:09.470Z,22.83
2022-08-26T09:44:55.891Z,13.48
2022-08-26T09:47:28.511Z,14.65
2022-08-26T09:50:04.232Z,17.38
2022-08-26T09:52:40.379Z,17.33
2022-08-26T09:55:14.413Z,18.13
2022-08-26T09:57:49.452Z,24.35
2022-08-26T10:00:32.360Z,13.18
2022-08-26T10:03:03.738Z,17.50
2022-08-26T10:05:38.482Z,21.73
2022-08-26T10:08:29.437Z,18.45
2022-08-26T10:10:58.730Z,26.77
2022-08-26T10:13:33.243Z,19.17
2022-08-26T10:16:10.836Z,18.75
2022-08-26T10:18:43.463Z,20.65
2022-08-26T10:21:15.289Z,17.13
2022-08-26T10:23:49.638Z,24.08
2022-08-26T10:26:23.907Z,21.58
2022-08-26T10:28:55.659Z,20.45
2022-08-26T10:31:29.182Z,14.77
2022-08-26T10:34:00.391Z,15.88
2022-08-26T10:37:14.304Z,17.63
2022-08-26T10:39:46.052Z,16.30
2022-08-26T10:42:20.802Z,20.52
2022-08-26T10:44:51.074Z,16.67
2022-08-26T10:47:25.522Z,16.33
2022-08-26T10:49:57.606Z,21.35
2022-08-26T10:52:39.842Z,16.67
2022-08-26T10:55:17.649Z,23.75
2022-08-26T10:57:55.907Z,21.58
2022-08-26T11:00:48.451Z,18.73
2022-08-26T11:03:31.401Z,16.98
2022-08-26T11:06:33.047Z,11.38
2022-08-26T11:09:06.632Z,17.90
2022-08-26T11:11:46.753Z,23.20
2022-08-26T11:14:53.748Z,14.65
2022-08-26T11:17:56.279Z,19.52
2022-08-26T11:20:35.299Z,17.05
2022-08-26T11:23:36.154Z,18.83
2022-08-26T11:26:37.710Z,22.60
2022-08-26T11:30:00.748Z,17.60
2022-08-26T11:32:48.750Z,14.00
2022-08-26T11:35:48.030Z,19.98
2022-08-26T11:38:20.978Z,17.58
2022-08-26T11:40:58.245Z,31.48
2022-08-26T11:43:29.843Z,15.07
2022-08-26T11:46:04.268Z,24.17
2022-08-26T11:48:35.627Z,17.52
2022-08-26T11:51:05.925Z,15.90
2022-08-26T11:53:36.954Z,22.80
2022-08-26T11:56:09.845Z,21.30
2022-08-26T11:58:44.401Z,27.65
2022-08-26T12:01:26.643Z,19.10
2022-08-26T12:03:58.447Z,18.80
2022-08-26T12:06:35.463Z,15.77
2022-08-26T12:09:11.693Z,13.90
2022-08-26T12:11:40.303Z,20.33
2022-08-26T12:14:19.262Z,16.42
2022-08-26T12:16:49.443Z,20.80
2022-08-26T12:19:26.331Z,20.95
2022-08-26T12:21:59.556Z,21.02
2022-08-26T12:24:27.358Z,22.20
2022-08-26T12:27:12.012Z,14.30
2022-08-26T12:29:40.387Z,18.73
2022-08-26T12:32:14.573Z,21.40
2022-08-26T12:34:43.294Z,20.90
2022-08-26T12:37:14.084Z,24.15
2022-08-26T12:39:44.519Z,19.00
2022-08-26T12:42:41.220Z,24.52
2022-08-26T12:45:09.867Z,16.02
2022-08-26T12:47:42.555Z,15.50
2022-08-26T12:50:17.394Z,12.63
2022-08-26T12:52:55.104Z,14.60
2022-08-26T12:55:26.106Z,15.65
2022-08-26T12:58:26.220Z,18.50
2022-08-26T13:00:56.011Z,13.05
2022-08-26T13:03:43.737Z,17.38
2022-08-26T13:06:18.306Z,16.30
2022-08-26T13:08:48.570Z,22.70
2022-08-26T13:11:20.904Z,11.32
2022-08-26T13:13:51.557Z,17.98
2022-08-26T13:16:19.431Z,13.70
2022-08-26T13:18:49.726Z,14.48
2022-08-26T13:21:20.748Z,16.15
2022-08-26T13:23:49.462Z,12.73
2022-08-26T13:26:17.960Z,16.67
2022-08-26T13:28:45.630Z,15.77
2022-08-26T13:31:30.540Z,14.50
2022-08-26T13:34:00.657Z,14.80
2022-08-26T13:36:28.804Z,12.50
2022-08-26T13:38:56.420Z,21.60
2022-08-26T13:41:29.053Z,11.32
2022-08-26T13:43:57.032Z,20.50
2022-08-26T13:46:26.789Z,13.68
2022-08-26T13:48:55.034Z,21.42
2022-08-26T13:51:24.150Z,19.50
2022-08-26T13:53:52.253Z,19.65
2022-08-26T13:56:20.954Z,12.15
2022-08-26T13:58:48.638Z,18.70
2022-08-26T14:01:18.045Z,13.13
2022-08-26T14:03:46.104Z,13.93
2022-08-26T14:06:13.975Z,13.70
2022-08-26T14:08:43.979Z,12.50
2022-08-26T14:11:12.096Z,13.02
2022-08-26T14:13:39.741Z,14.13
2022-08-26T14:16:11.262Z,18.00
2022-08-26T14:18:45.277Z,16.30
2022-08-26T14:21:16.309Z,18.55
2022-08-26T14:23:45.319Z,23.48
2022-08-26T14:26:27.925Z,9.52
2022-08-26T14:28:57.717Z,20.58
2022-08-26T14:31:26.802Z,15.27
2022-08-26T14:33:55.624Z,14.23
2022-08-26T14:36:28.979Z,12.70
2022-08-26T14:39:00.789Z,9.77
2022-08-26T14:41:33.007Z,12.80
2022-08-26T14:44:04.917Z,13.65
2022-08-26T14:46:35.945Z,14.35
2022-08-26T14:49:07.263Z,11.48
2022-08-26T14:51:38.049Z,16.25
2022-08-26T14:54:13.316Z,12.82
2022-08-26T14:56:45.820Z,10.27
2022-08-26T14:59:14.700Z,8.25
2022-08-26T15:01:43.714Z,12.18
2022-08-26T15:04:11.731Z,19.65
2022-08-26T15:06:39.815Z,9.13
2022-08-26T15:09:09.349Z,23.35
2022-08-26T15:11:37.718Z,21.42
2022-08-26T15:14:06.250Z,11.77
2022-08-26T15:16:35.419Z,16.63
2022-08-26T15:19:05.242Z,15.00
2022-08-26T15:21:34.051Z,11.60
2022-08-26T15:24:04.565Z,9.23
2022-08-26T15:26:34.840Z,14.40
2022-08-26T15:29:05.071Z,13.05
2022-08-26T15:31:34.233Z,9.18
2022-08-26T15:34:04.707Z,12.90
2022-08-26T15:36:32.979Z,10.35
2022-08-26T15:39:01.657Z,17.60
2022-08-26T15:41:29.908Z,17.63
2022-08-26T15:44:05.317Z,13.93
2022-08-26T15:46:33.764Z,17.75
2022-08-26T15:49:05.255Z,16.15
2022-08-26T15:51:35.356Z,12.82
2022-08-26T15:54:13.050Z,15.20
2022-08-26T15:56:40.665Z,15.88
2022-08-26T15:59:11.428Z,12.73
2022-08-26T16:01:39.216Z,17.10
2022-08-26T16:04:07.768Z,14.73
2022-08-26T16:06:37.543Z,18.63
2022-08-26T16:09:05.887Z,18.60
2022-08-26T16:11:34.241Z,9.60
2022-08-26T16:14:03.367Z,13.65
2022-08-26T16:16:32.984Z,16.50
2022-08-26T16:19:07.291Z,14.13
2022-08-26T16:21:35.998Z,21.20
2022-08-26T16:24:05.011Z,19.90
2022-08-26T16:26:34.728Z,13.23
2022-08-26T16:29:04.489Z,16.02
2022-08-26T16:31:33.542Z,14.02
2022-08-26T16:34:02.598Z,16.73
2022-08-26T16:36:30.480Z,19.30
2022-08-26T16:38:58.107Z,13.57
2022-08-26T16:41:28.589Z,11.38
2022-08-26T16:43:56.849Z,7.82
2022-08-26T16:46:26.160Z,12.10
2022-08-26T16:48:56.913Z,15.32
2022-08-26T16:51:27.925Z,11.45
2022-08-26T16:53:57.205Z,11.48
2022-08-26T16:56:33.990Z,14.20
2022-08-26T16:59:02.774Z,13.00
2022-08-26T17:01:30.652Z,11.45
2022-08-26T17:04:00.160Z,15.68
2022-08-26T17:06:28.851Z,9.00
2022-08-26T17:08:56.872Z,16.23
2022-08-26T17:11:24.496Z,13.15
2022-08-26T17:13:52.497Z,12.43
2022-08-26T17:16:23.299Z,10.38
2022-08-26T17:18:54.983Z,10.75
2022-08-26T17:21:24.615Z,7.80
2022-08-26T17:23:52.262Z,6.38
2022-08-26T17:26:20.055Z,6.82
2022-08-26T17:28:47.703Z,8.07
2022-08-26T17:31:15.510Z,8.93
2022-08-26T17:33:44.429Z,11.52
2022-08-26T17:36:15.809Z,8.18
2022-08-26T17:38:45.146Z,8.52
2022-08-26T17:41:16.301Z,8.77
2022-08-26T17:43:44.767Z,11.38
2022-08-26T17:46:13.767Z,8.43
2022-08-26T17:48:42.189Z,10.38
2022-08-26T17:51:11.028Z,13.88
2022-08-26T17:53:39.103Z,16.92
2022-08-26T17:56:09.380Z,16.90
2022-08-26T17:58:37.891Z,20.42
2022-08-26T18:01:06.449Z,18.20
2022-08-26T18:03:35.023Z,19.85
2022-08-26T18:06:03.990Z,24.67
2022-08-26T18:08:31.739Z,22.10
2022-08-26T18:10:59.688Z,18.70
2022-08-26T18:13:28.568Z,20.67
2022-08-26T18:15:56.250Z,21.73
2022-08-26T18:18:23.944Z,20.40
2022-08-26T18:20:52.620Z,17.63
2022-08-26T18:23:29.481Z,20.45
2022-08-26T18:25:59.323Z,24.13
2022-08-26T18:28:28.264Z,22.20
2022-08-26T18:30:57.041Z,22.48
2022-08-26T18:33:25.457Z,25.08
2022-08-26T18:35:53.642Z,22.27
2022-08-26T18:38:21.265Z,24.05
2022-08-26T18:40:50.142Z,19.77
2022-08-26T18:43:17.818Z,22.70
2022-08-26T18:45:46.744Z,20.27
2022-08-26T18:48:14.659Z,21.83
2022-08-26T18:50:46.997Z,23.90
2022-08-26T18:53:15.564Z,21.08
2022-08-26T18:55:43.243Z,25.52
2022-08-26T18:58:11.586Z,23.35
2022-08-26T19:00:39.561Z,20.70
2022-08-26T19:03:18.441Z,31.13
2022-08-26T19:05:47.045Z,22.42
2022-08-26T19:08:14.740Z,19.35
2022-08-26T19:10:42.565Z,22.20
2022-08-26T19:13:10.687Z,21.85
2022-08-26T19:15:39.082Z,20.92
2022-08-26T19:18:09.716Z,22.13
2022-08-26T19:20:43.469Z,23.95
2022-08-26T19:23:31.084Z,25.00
2022-08-26T19:26:03.892Z,22.67
2022-08-26T19:28:32.406Z,20.10
2022-08-26T19:31:01.138Z,27.80
2022-08-26T19:33:30.446Z,18.92
2022-08-26T19:35:58.661Z,22.00
2022-08-26T19:38:26.298Z,27.58
2022-08-26T19:40:55.612Z,22.85
2022-08-26T19:43:23.206Z,19.42
2022-08-26T19:45:51.051Z,24.83
2022-08-26T19:48:18.790Z,24.85
2022-08-26T19:50:47.821Z,27.83
2022-08-26T19:53:15.496Z,24.67
2022-08-26T19:55:43.090Z,28.25
2022-08-26T19:58:11.618Z,22.15
2022-08-26T20:00:42.052Z,22.33
2022-08-26T20:03:10.629Z,21.27
2022-08-26T20:05:42.468Z,20.75
2022-08-26T20:08:22.061Z,25.77
2022-08-26T20:10:51.049Z,23.58
2022-08-26T20:13:21.243Z,20.17
2022-08-26T20:15:49.112Z,22.10
2022-08-26T20:18:34.521Z,19.65
2022-08-26T20:21:19.824Z,21.35
2022-08-26T20:23:48.788Z,23.65
2022-08-26T20:26:16.983Z,18.52
2022-08-26T20:28:44.726Z,20.73
2022-08-26T20:31:12.678Z,20.90
2022-08-26T20:33:46.366Z,21.83
2022-08-26T20:36:16.656Z,19.70
2022-08-26T20:38:45.960Z,16.00
2022-08-26T20:41:15.530Z,13.05
2022-08-26T20:43:46.502Z,12.65
2022-08-26T20:46:18.183Z,13.40
2022-08-26T20:48:47.251Z,16.88
2022-08-26T20:51:15.172Z,16.95
2022-08-26T20:53:44.112Z,14.05
2022-08-26T20:56:14.132Z,16.13
2022-08-26T20:58:43.909Z,18.80
2022-08-26T21:01:19.058Z,17.55
2022-08-26T21:03:47.176Z,14.63
2022-08-26T21:06:16.517Z,14.93
2022-08-26T21:08:44.889Z,13.68
2022-08-26T21:11:13.183Z,15.20
2022-08-26T21:14:01.512Z,12.13
2022-08-26T21:16:30.385Z,10.52
2022-08-26T21:19:00.388Z,11.00
2022-08-26T21:21:28.419Z,12.15
2022-08-26T21:23:57.036Z,9.95
2022-08-26T21:26:25.297Z,9.57
2022-08-26T21:28:53.403Z,9.52
2022-08-26T21:31:23.240Z,13.25
2022-08-26T21:33:52.957Z,6.00
2022-08-26T21:36:21.066Z,5.85
2022-08-26T21:38:48.717Z,6.90
2022-08-26T21:41:19.352Z,7.45
2022-08-26T21:43:47.935Z,6.50
2022-08-26T21:46:19.432Z,6.45
2022-08-26T21:48:54.503Z,6.07
2022-08-26T21:51:24.178Z,6.28
2022-08-26T21:53:53.130Z,9.82
2022-08-26T21:56:22.060Z,5.35
2022-08-26T21:58:50.005Z,4.72
2022-08-26T22:01:23.029Z,5.93
2022-08-26T22:03:53.266Z,6.00
2022-08-26T22:06:23.881Z,8.27
2022-08-26T22:08:52.961Z,5.68
2022-08-26T22:11:21.308Z,6.75
2022-08-26T22:13:49.434Z,6.53
2022-08-26T22:16:18.596Z,6.93
2022-08-26T22:18:47.025Z,5.22
2022-08-26T22:21:19.441Z,5.93
2022-08-26T22:23:48.618Z,6.53
2022-08-26T22:26:25.216Z,4.03
2022-08-26T22:28:58.753Z,5.93
2022-08-26T22:31:36.945Z,8.30
2022-08-26T22:34:07.783Z,4.57
2022-08-26T22:36:43.148Z,8.60
2022-08-26T22:39:12.589Z,5.72
2022-08-26T22:41:40.352Z,7.60
2022-08-26T22:44:08.284Z,5.13
2022-08-26T22:46:38.504Z,8.13
2022-08-26T22:49:06.365Z,5.70
2022-08-26T22:51:34.434Z,4.75
2022-08-26T22:54:03.348Z,5.03
2022-08-26T22:56:30.988Z,7.28
2022-08-26T22:58:58.634Z,5.78
2022-08-26T23:01:26.498Z,6.30
2022-08-26T23:03:54.208Z,8.27
2022-08-26T23:06:21.871Z,6.35
2022-08-26T23:08:49.460Z,4.22
2022-08-26T23:11:18.994Z,6.22
2022-08-26T23:13:46.594Z,8.82
2022-08-26T23:16:14.782Z,5.88
2022-08-26T23:18:42.766Z,7.13
2022-08-26T23:21:11.581Z,6.47
2022-08-26T23:23:39.213Z,10.43
2022-08-26T23:26:08.512Z,6.72
2022-08-26T23:28:38.465Z,7.00
2022-08-26T23:31:06.669Z,5.60
2022-08-26T23:33:48.393Z,10.20
2022-08-26T23:36:18.200Z,4.95
2022-08-26T23:38:52.369Z,9.65
2022-08-26T23:41:21.097Z,9.07
2022-08-26T23:43:50.249Z,10.40
2022-08-26T23:46:18.010Z,6.65
2022-08-26T23:48:47.098Z,9.05
2022-08-26T23:51:32.395Z,12.90
2022-08-26T23:54:00.000Z,7.28
2022-08-26T23:56:30.436Z,6.82
2022-08-26T23:58:59.568Z,9.35
